sensor_id;sensor_type;location;lat;lon;timestamp;pressure;altitude;pressure_sealevel;temperature;humidity
59053;BME280;44843;44.728;10.396;2023-07-20T00:00:33;99826.59;;;27.51;82.97
59053;BME280;44843;44.728;10.396;2023-07-20T00:03:14;99833.38;;;27.54;83.17
59053;BME280;44843;44.728;10.396;2023-07-20T00:05:45;99841.66;;;27.46;84.17
59053;BME280;44843;44.728;10.396;2023-07-20T00:08:10;99841.34;;;27.67;83.08
59053;BME280;44843;44.728;10.396;2023-07-20T00:10:36;99828.91;;;27.41;84.12
59053;BME280;44843;44.728;10.396;2023-07-20T00:13:02;99816.38;;;27.35;84.73
59053;BME280;44843;44.728;10.396;2023-07-20T00:15:27;99825.41;;;27.41;84.58
59053;BME280;44843;44.728;10.396;2023-07-20T00:17:53;99839.13;;;26.99;88.22
59053;BME280;44843;44.728;10.396;2023-07-20T00:20:18;99841.44;;;26.69;92.97
59053;BME280;44843;44.728;10.396;2023-07-20T00:22:43;99835.06;;;26.43;96.38
59053;BME280;44843;44.728;10.396;2023-07-20T00:25:10;99829.47;;;26.85;93.83
59053;BME280;44843;44.728;10.396;2023-07-20T00:27:37;99836.22;;;27.14;91.07
59053;BME280;44843;44.728;10.396;2023-07-20T00:30:03;99842.03;;;26.84;93.54
59053;BME280;44843;44.728;10.396;2023-07-20T00:32:29;99850.06;;;26.18;100.00
59053;BME280;44843;44.728;10.396;2023-07-20T00:34:55;99839.81;;;26.68;100.00
59053;BME280;44843;44.728;10.396;2023-07-20T00:37:20;99837.09;;;26.88;97.83
59053;BME280;44843;44.728;10.396;2023-07-20T00:39:45;99852.13;;;26.82;97.90
59053;BME280;44843;44.728;10.396;2023-07-20T00:42:11;99875.38;;;26.68;99.86
59053;BME280;44843;44.728;10.396;2023-07-20T00:44:36;99875.22;;;25.75;100.00
59053;BME280;44843;44.728;10.396;2023-07-20T00:47:02;99892.91;;;25.76;100.00
59053;BME280;44843;44.728;10.396;2023-07-20T00:49:27;99891.63;;;25.65;100.00
59053;BME280;44843;44.728;10.396;2023-07-20T00:51:53;99903.84;;;25.46;100.00
59053;BME280;44843;44.728;10.396;2023-07-20T00:54:18;99901.94;;;25.34;100.00
59053;BME280;44843;44.728;10.396;2023-07-20T00:56:44;61389.06;;;-146.16;100.00
59053;BME280;44843;44.728;10.396;2023-07-20T00:59:10;61389.06;;;-146.16;100.00
59053;BME280;44843;44.728;10.396;2023-07-20T01:01:35;61389.06;;;-146.16;100.00
59053;BME280;44843;44.728;10.396;2023-07-20T01:04:01;61389.06;;;-146.16;100.00
59053;BME280;44843;44.728;10.396;2023-07-20T01:06:36;61389.06;;;-146.16;100.00
59053;BME280;44843;44.728;10.396;2023-07-20T01:09:28;61389.06;;;-146.16;100.00
59053;BME280;44843;44.728;10.396;2023-07-20T01:12:05;61389.06;;;-146.16;100.00
59053;BME280;44843;44.728;10.396;2023-07-20T01:14:32;61389.06;;;-146.16;100.00
59053;BME280;44843;44.728;10.396;2023-07-20T01:16:59;61389.06;;;-146.16;100.00
59053;BME280;44843;44.728;10.396;2023-07-20T01:19:24;61389.06;;;-146.16;100.00
59053;BME280;44843;44.728;10.396;2023-07-20T01:21:57;61389.06;;;-146.16;100.00
59053;BME280;44843;44.728;10.396;2023-07-20T01:24:45;61389.06;;;-146.16;100.00
59053;BME280;44843;44.728;10.396;2023-07-20T01:32:47;61389.06;;;-146.16;100.00
59053;BME280;44843;44.728;10.396;2023-07-20T01:35:14;61389.06;;;-146.16;100.00
59053;BME280;44843;44.728;10.396;2023-07-20T01:37:43;61389.06;;;-146.16;100.00
59053;BME280;44843;44.728;10.396;2023-07-20T01:40:10;61389.06;;;-146.16;100.00
59053;BME280;44843;44.728;10.396;2023-07-20T01:42:36;61389.06;;;-146.16;100.00
59053;BME280;44843;44.728;10.396;2023-07-20T01:45:02;61389.06;;;-146.16;100.00
59053;BME280;44843;44.728;10.396;2023-07-20T01:47:27;61389.06;;;-146.16;100.00
59053;BME280;44843;44.728;10.396;2023-07-20T01:49:53;61389.06;;;-146.16;100.00
59053;BME280;44843;44.728;10.396;2023-07-20T01:52:18;61389.06;;;-146.16;100.00
59053;BME280;44843;44.728;10.396;2023-07-20T01:54:43;61389.06;;;-146.16;100.00
59053;BME280;44843;44.728;10.396;2023-07-20T01:57:09;61389.06;;;-146.16;100.00
59053;BME280;44843;44.728;10.396;2023-07-20T01:59:34;61389.06;;;-146.16;100.00
59053;BME280;44843;44.728;10.396;2023-07-20T02:01:59;61389.06;;;-146.16;100.00
59053;BME280;44843;44.728;10.396;2023-07-20T02:04:25;61389.06;;;-146.16;100.00
59053;BME280;44843;44.728;10.396;2023-07-20T02:06:50;61389.06;;;-146.16;100.00
59053;BME280;44843;44.728;10.396;2023-07-20T02:09:16;61389.06;;;-146.16;100.00
59053;BME280;44843;44.728;10.396;2023-07-20T02:11:41;61389.06;;;-146.16;100.00
59053;BME280;44843;44.728;10.396;2023-07-20T02:14:06;99921.69;;;25.11;nan
59053;BME280;44843;44.728;10.396;2023-07-20T02:16:32;99918.19;;;25.39;nan
59053;BME280;44843;44.728;10.396;2023-07-20T02:18:57;99919.50;;;25.49;nan
59053;BME280;44843;44.728;10.396;2023-07-20T02:21:23;99912.63;;;25.82;nan
59053;BME280;44843;44.728;10.396;2023-07-20T02:23:48;99908.53;;;25.86;nan
59053;BME280;44843;44.728;10.396;2023-07-20T02:26:14;99920.03;;;25.86;nan
59053;BME280;44843;44.728;10.396;2023-07-20T02:28:40;99903.59;;;25.83;nan
59053;BME280;44843;44.728;10.396;2023-07-20T02:31:06;99912.66;;;25.88;nan
59053;BME280;44843;44.728;10.396;2023-07-20T02:33:31;99915.16;;;25.90;nan
59053;BME280;44843;44.728;10.396;2023-07-20T02:35:57;99907.56;;;25.94;nan
59053;BME280;44843;44.728;10.396;2023-07-20T02:38:22;99904.81;;;25.80;nan
59053;BME280;44843;44.728;10.396;2023-07-20T02:40:48;99915.88;;;25.77;nan
59053;BME280;44843;44.728;10.396;2023-07-20T02:43:13;99923.09;;;25.77;nan
59053;BME280;44843;44.728;10.396;2023-07-20T02:45:41;99907.88;;;25.77;nan
59053;BME280;44843;44.728;10.396;2023-07-20T02:48:09;99914.22;;;25.69;nan
59053;BME280;44843;44.728;10.396;2023-07-20T02:50:35;99903.34;;;25.78;nan
59053;BME280;44843;44.728;10.396;2023-07-20T02:53:02;99904.19;;;25.72;nan
59053;BME280;44843;44.728;10.396;2023-07-20T02:55:27;99907.47;;;25.74;nan
59053;BME280;44843;44.728;10.396;2023-07-20T02:57:53;99900.66;;;25.71;nan
59053;BME280;44843;44.728;10.396;2023-07-20T03:00:18;99907.00;;;25.63;nan
59053;BME280;44843;44.728;10.396;2023-07-20T03:02:47;99905.94;;;25.51;nan
59053;BME280;44843;44.728;10.396;2023-07-20T03:05:14;99906.19;;;25.63;nan
59053;BME280;44843;44.728;10.396;2023-07-20T03:07:39;99910.66;;;25.56;nan
59053;BME280;44843;44.728;10.396;2023-07-20T03:10:05;99899.13;;;25.42;nan
59053;BME280;44843;44.728;10.396;2023-07-20T03:12:35;99905.09;;;25.51;nan
59053;BME280;44843;44.728;10.396;2023-07-20T03:15:01;99902.25;;;25.52;nan
59053;BME280;44843;44.728;10.396;2023-07-20T03:17:27;99897.78;;;25.66;nan
59053;BME280;44843;44.728;10.396;2023-07-20T03:19:52;99902.00;;;25.47;nan
59053;BME280;44843;44.728;10.396;2023-07-20T03:22:18;99900.16;;;25.41;nan
59053;BME280;44843;44.728;10.396;2023-07-20T03:24:43;99897.91;;;25.51;nan
59053;BME280;44843;44.728;10.396;2023-07-20T03:27:09;99902.66;;;25.56;nan
59053;BME280;44843;44.728;10.396;2023-07-20T03:29:34;99896.66;;;25.47;nan
59053;BME280;44843;44.728;10.396;2023-07-20T03:32:00;99895.22;;;25.44;nan
59053;BME280;44843;44.728;10.396;2023-07-20T03:34:25;99888.41;;;25.35;nan
59053;BME280;44843;44.728;10.396;2023-07-20T03:36:50;99883.03;;;25.28;nan
59053;BME280;44843;44.728;10.396;2023-07-20T03:39:16;99872.59;;;25.34;nan
59053;BME280;44843;44.728;10.396;2023-07-20T03:41:41;99871.72;;;25.20;nan
59053;BME280;44843;44.728;10.396;2023-07-20T03:44:08;99879.25;;;25.16;nan
59053;BME280;44843;44.728;10.396;2023-07-20T03:46:33;99876.47;;;25.31;nan
59053;BME280;44843;44.728;10.396;2023-07-20T03:48:59;99868.00;;;25.21;nan
59053;BME280;44843;44.728;10.396;2023-07-20T03:51:25;99872.19;;;25.30;nan
59053;BME280;44843;44.728;10.396;2023-07-20T03:53:50;99869.91;;;25.34;nan
59053;BME280;44843;44.728;10.396;2023-07-20T03:56:16;99865.69;;;25.11;nan
59053;BME280;44843;44.728;10.396;2023-07-20T03:58:41;99869.88;;;25.27;nan
59053;BME280;44843;44.728;10.396;2023-07-20T04:01:06;99870.22;;;25.17;nan
59053;BME280;44843;44.728;10.396;2023-07-20T04:03:32;99874.44;;;25.33;nan
59053;BME280;44843;44.728;10.396;2023-07-20T04:05:57;99885.56;;;25.37;nan
59053;BME280;44843;44.728;10.396;2023-07-20T04:08:23;99883.28;;;25.40;nan
59053;BME280;44843;44.728;10.396;2023-07-20T04:10:49;99882.44;;;25.33;nan
59053;BME280;44843;44.728;10.396;2023-07-20T04:13:15;99876.00;;;25.62;nan
59053;BME280;44843;44.728;10.396;2023-07-20T04:15:42;99878.31;;;25.79;nan
59053;BME280;44843;44.728;10.396;2023-07-20T04:18:07;99879.41;;;25.91;nan
59053;BME280;44843;44.728;10.396;2023-07-20T04:20:32;99891.34;;;26.02;nan
59053;BME280;44843;44.728;10.396;2023-07-20T04:22:58;99888.63;;;25.88;nan
59053;BME280;44843;44.728;10.396;2023-07-20T04:25:23;99886.81;;;25.89;nan
59053;BME280;44843;44.728;10.396;2023-07-20T04:27:49;99880.63;;;25.88;nan
59053;BME280;44843;44.728;10.396;2023-07-20T04:30:16;99878.78;;;25.89;nan
59053;BME280;44843;44.728;10.396;2023-07-20T04:32:44;99884.88;;;25.69;nan
59053;BME280;44843;44.728;10.396;2023-07-20T04:35:10;99882.59;;;25.73;nan
59053;BME280;44843;44.728;10.396;2023-07-20T04:37:36;99885.06;;;25.68;nan
59053;BME280;44843;44.728;10.396;2023-07-20T04:40:02;99875.94;;;25.49;nan
59053;BME280;44843;44.728;10.396;2023-07-20T04:42:28;99877.25;;;25.66;nan
59053;BME280;44843;44.728;10.396;2023-07-20T04:44:53;99878.78;;;25.89;nan
59053;BME280;44843;44.728;10.396;2023-07-20T04:47:19;99872.63;;;26.02;nan
59053;BME280;44843;44.728;10.396;2023-07-20T04:49:44;99867.97;;;26.44;nan
59053;BME280;44843;44.728;10.396;2023-07-20T04:52:09;99870.47;;;26.72;nan
59053;BME280;44843;44.728;10.396;2023-07-20T04:54:35;99865.09;;;26.85;nan
59053;BME280;44843;44.728;10.396;2023-07-20T04:57:00;99863.78;;;27.15;nan
59053;BME280;44843;44.728;10.396;2023-07-20T04:59:26;99874.13;;;27.63;nan
59053;BME280;44843;44.728;10.396;2023-07-20T05:01:51;99868.19;;;27.99;nan
59053;BME280;44843;44.728;10.396;2023-07-20T05:04:17;99872.09;;;28.60;nan
59053;BME280;44843;44.728;10.396;2023-07-20T05:06:43;99876.84;;;29.02;nan
59053;BME280;44843;44.728;10.396;2023-07-20T05:09:08;99876.53;;;29.65;nan
59053;BME280;44843;44.728;10.396;2023-07-20T05:11:34;99867.06;;;30.35;nan
59053;BME280;44843;44.728;10.396;2023-07-20T05:14:00;99872.72;;;30.69;nan
59053;BME280;44843;44.728;10.396;2023-07-20T05:16:25;99866.53;;;30.68;nan
59053;BME280;44843;44.728;10.396;2023-07-20T05:18:51;99870.50;;;31.01;nan
59053;BME280;44843;44.728;10.396;2023-07-20T05:21:16;99872.72;;;31.16;nan
59053;BME280;44843;44.728;10.396;2023-07-20T05:23:41;99876.47;;;30.91;nan
59053;BME280;44843;44.728;10.396;2023-07-20T05:26:08;99872.97;;;31.55;nan
59053;BME280;44843;44.728;10.396;2023-07-20T05:28:34;99881.66;;;31.33;nan
59053;BME280;44843;44.728;10.396;2023-07-20T05:31:02;99884.56;;;31.84;nan
59053;BME280;44843;44.728;10.396;2023-07-20T05:33:28;99885.44;;;31.73;nan
59053;BME280;44843;44.728;10.396;2023-07-20T05:35:53;99880.41;;;31.93;nan
59053;BME280;44843;44.728;10.396;2023-07-20T05:38:18;99881.25;;;32.56;nan
59053;BME280;44843;44.728;10.396;2023-07-20T05:40:44;99886.53;;;32.85;nan
59053;BME280;44843;44.728;10.396;2023-07-20T05:43:11;99889.44;;;33.39;nan
59053;BME280;44843;44.728;10.396;2023-07-20T05:45:36;99893.66;;;33.79;nan
59053;BME280;44843;44.728;10.396;2023-07-20T05:48:02;99885.56;;;34.39;nan
59053;BME280;44843;44.728;10.396;2023-07-20T05:50:27;99889.06;;;34.07;nan
59053;BME280;44843;44.728;10.396;2023-07-20T05:52:53;99894.66;;;34.22;nan
59053;BME280;44843;44.728;10.396;2023-07-20T05:55:19;99895.84;;;34.74;nan
59053;BME280;44843;44.728;10.396;2023-07-20T05:57:44;99901.19;;;35.12;nan
59053;BME280;44843;44.728;10.396;2023-07-20T06:00:10;99892.72;;;35.51;nan
59053;BME280;44843;44.728;10.396;2023-07-20T06:02:37;99902.44;;;35.36;nan
59053;BME280;44843;44.728;10.396;2023-07-20T06:05:03;99900.38;;;35.64;nan
59053;BME280;44843;44.728;10.396;2023-07-20T06:07:28;99907.19;;;35.77;nan
59053;BME280;44843;44.728;10.396;2023-07-20T06:09:53;99913.44;;;35.87;nan
59053;BME280;44843;44.728;10.396;2023-07-20T06:12:19;99918.31;;;35.80;nan
59053;BME280;44843;44.728;10.396;2023-07-20T06:14:44;99918.59;;;35.16;nan
59053;BME280;44843;44.728;10.396;2023-07-20T06:17:10;99916.44;;;35.18;nan
59053;BME280;44843;44.728;10.396;2023-07-20T06:19:35;99921.66;;;34.87;nan
59053;BME280;44843;44.728;10.396;2023-07-20T06:22:01;99922.41;;;34.40;nan
59053;BME280;44843;44.728;10.396;2023-07-20T06:24:26;99931.44;;;34.23;nan
59053;BME280;44843;44.728;10.396;2023-07-20T06:26:51;99923.44;;;34.66;nan
59053;BME280;44843;44.728;10.396;2023-07-20T06:29:17;99927.53;;;33.21;nan
59053;BME280;44843;44.728;10.396;2023-07-20T06:31:42;99922.19;;;32.53;nan
59053;BME280;44843;44.728;10.396;2023-07-20T06:34:08;99933.88;;;31.56;nan
59053;BME280;44843;44.728;10.396;2023-07-20T06:36:33;99928.50;;;30.85;nan
59053;BME280;44843;44.728;10.396;2023-07-20T06:38:58;99928.50;;;30.85;nan
59053;BME280;44843;44.728;10.396;2023-07-20T06:41:24;99928.78;;;30.95;nan
59053;BME280;44843;44.728;10.396;2023-07-20T06:43:49;99929.59;;;30.72;nan
59053;BME280;44843;44.728;10.396;2023-07-20T06:46:15;99934.13;;;30.60;nan
59053;BME280;44843;44.728;10.396;2023-07-20T06:48:40;99940.78;;;30.69;nan
59053;BME280;44843;44.728;10.396;2023-07-20T06:51:05;99932.72;;;30.69;nan
59053;BME280;44843;44.728;10.396;2023-07-20T06:53:31;99935.81;;;30.96;nan
59053;BME280;44843;44.728;10.396;2023-07-20T06:55:56;99935.41;;;30.57;nan
59053;BME280;44843;44.728;10.396;2023-07-20T06:58:23;99941.78;;;30.98;nan
59053;BME280;44843;44.728;10.396;2023-07-20T07:00:49;99945.28;;;31.11;nan
59053;BME280;44843;44.728;10.396;2023-07-20T07:03:14;99948.53;;;31.36;nan
59053;BME280;44843;44.728;10.396;2023-07-20T07:05:40;99948.06;;;30.80;nan
59053;BME280;44843;44.728;10.396;2023-07-20T07:08:05;99938.91;;;31.52;nan
59053;BME280;44843;44.728;10.396;2023-07-20T07:10:31;99942.34;;;31.24;nan
59053;BME280;44843;44.728;10.396;2023-07-20T07:12:56;99943.16;;;30.89;nan
59053;BME280;44843;44.728;10.396;2023-07-20T07:15:22;99945.75;;;31.19;nan
59053;BME280;44843;44.728;10.396;2023-07-20T07:17:47;99944.44;;;31.22;nan
59053;BME280;44843;44.728;10.396;2023-07-20T07:20:13;99943.59;;;31.57;nan
59053;BME280;44843;44.728;10.396;2023-07-20T07:22:38;99939.06;;;31.22;nan
59053;BME280;44843;44.728;10.396;2023-07-20T07:25:04;99943.38;;;31.35;nan
59053;BME280;44843;44.728;10.396;2023-07-20T07:27:29;99942.19;;;30.72;nan
59053;BME280;44843;44.728;10.396;2023-07-20T07:29:55;99954.19;;;30.88;nan
59053;BME280;44843;44.728;10.396;2023-07-20T07:32:20;99937.06;;;30.82;nan
59053;BME280;44843;44.728;10.396;2023-07-20T07:34:46;99949.50;;;31.07;nan
59053;BME280;44843;44.728;10.396;2023-07-20T07:37:13;99948.53;;;31.36;nan
59053;BME280;44843;44.728;10.396;2023-07-20T07:39:39;99949.91;;;31.51;nan
59053;BME280;44843;44.728;10.396;2023-07-20T07:42:05;99946.16;;;31.64;nan
59053;BME280;44843;44.728;10.396;2023-07-20T07:44:31;99940.56;;;31.53;nan
59053;BME280;44843;44.728;10.396;2023-07-20T07:46:56;99947.72;;;31.36;nan
59053;BME280;44843;44.728;10.396;2023-07-20T07:49:21;99943.31;;;30.94;nan
59053;BME280;44843;44.728;10.396;2023-07-20T07:51:47;99938.47;;;31.20;nan
59053;BME280;44843;44.728;10.396;2023-07-20T07:54:12;99939.78;;;30.94;nan
59053;BME280;44843;44.728;10.396;2023-07-20T07:56:37;99944.94;;;31.19;nan
59053;BME280;44843;44.728;10.396;2023-07-20T07:59:03;99942.91;;;30.79;nan
59053;BME280;44843;44.728;10.396;2023-07-20T08:01:28;99941.84;;;30.80;nan
59053;BME280;44843;44.728;10.396;2023-07-20T08:03:54;99946.22;;;31.05;nan
59053;BME280;44843;44.728;10.396;2023-07-20T08:06:19;99943.63;;;31.45;nan
59053;BME280;44843;44.728;10.396;2023-07-20T08:08:44;99940.16;;;31.73;nan
59053;BME280;44843;44.728;10.396;2023-07-20T08:11:10;99950.94;;;31.61;nan
59053;BME280;44843;44.728;10.396;2023-07-20T08:13:36;99945.75;;;31.31;nan
59053;BME280;44843;44.728;10.396;2023-07-20T08:16:01;99950.22;;;31.66;nan
59053;BME280;44843;44.728;10.396;2023-07-20T08:18:30;99953.31;;;31.58;nan
59053;BME280;44843;44.728;10.396;2023-07-20T08:20:56;99957.19;;;31.62;nan
59053;BME280;44843;44.728;10.396;2023-07-20T08:23:21;99963.53;;;31.32;nan
59053;BME280;44843;44.728;10.396;2023-07-20T08:25:47;99953.56;;;31.56;nan
59053;BME280;44843;44.728;10.396;2023-07-20T08:28:14;99954.31;;;31.80;nan
59053;BME280;44843;44.728;10.396;2023-07-20T08:33:06;99948.22;;;31.21;nan
59053;BME280;44843;44.728;10.396;2023-07-20T08:35:32;99952.41;;;30.93;nan
59053;BME280;44843;44.728;10.396;2023-07-20T08:37:57;99944.78;;;31.37;nan
59053;BME280;44843;44.728;10.396;2023-07-20T08:40:22;99950.94;;;31.73;nan
59053;BME280;44843;44.728;10.396;2023-07-20T08:42:49;99945.84;;;31.89;nan
59053;BME280;44843;44.728;10.396;2023-07-20T08:45:16;99945.59;;;31.90;nan
59053;BME280;44843;44.728;10.396;2023-07-20T08:47:43;99943.34;;;31.99;nan
59053;BME280;44843;44.728;10.396;2023-07-20T08:50:11;99948.34;;;31.78;nan
59053;BME280;44843;44.728;10.396;2023-07-20T08:52:38;99941.28;;;31.25;nan
59053;BME280;44843;44.728;10.396;2023-07-20T08:55:03;99941.16;;;31.32;nan
59053;BME280;44843;44.728;10.396;2023-07-20T08:57:31;99935.19;;;31.18;nan
59053;BME280;44843;44.728;10.396;2023-07-20T08:59:59;99937.53;;;31.50;nan
59053;BME280;44843;44.728;10.396;2023-07-20T09:02:26;99933.84;;;31.68;nan
59053;BME280;44843;44.728;10.396;2023-07-20T09:04:52;99934.84;;;31.50;nan
59053;BME280;44843;44.728;10.396;2023-07-20T09:07:18;99927.16;;;31.70;nan
59053;BME280;44843;44.728;10.396;2023-07-20T09:09:45;99932.22;;;31.55;nan
59053;BME280;44843;44.728;10.396;2023-07-20T09:12:14;99932.53;;;31.70;nan
59053;BME280;44843;44.728;10.396;2023-07-20T09:14:45;99931.69;;;31.81;nan
59053;BME280;44843;44.728;10.396;2023-07-20T09:17:14;99936.81;;;31.83;nan
59053;BME280;44843;44.728;10.396;2023-07-20T09:19:49;99940.09;;;31.85;nan
59053;BME280;44843;44.728;10.396;2023-07-20T09:22:14;99931.88;;;31.92;nan
59053;BME280;44843;44.728;10.396;2023-07-20T09:24:40;99937.19;;;31.87;nan
59053;BME280;44843;44.728;10.396;2023-07-20T09:27:06;99929.19;;;31.92;nan
59053;BME280;44843;44.728;10.396;2023-07-20T09:29:32;99935.72;;;31.67;nan
59053;BME280;44843;44.728;10.396;2023-07-20T09:32:03;99934.34;;;31.53;nan
59053;BME280;44843;44.728;10.396;2023-07-20T09:34:30;99937.69;;;31.72;nan
59053;BME280;44843;44.728;10.396;2023-07-20T09:36:58;99936.38;;;31.46;nan
59053;BME280;44843;44.728;10.396;2023-07-20T09:39:24;99925.06;;;30.96;nan
59053;BME280;44843;44.728;10.396;2023-07-20T09:41:51;99931.00;;;30.87;nan
59053;BME280;44843;44.728;10.396;2023-07-20T09:44:16;99926.56;;;31.16;nan
59053;BME280;44843;44.728;10.396;2023-07-20T09:46:45;99926.13;;;31.59;nan
59053;BME280;44843;44.728;10.396;2023-07-20T09:49:11;99932.44;;;31.65;nan
59053;BME280;44843;44.728;10.396;2023-07-20T09:51:37;99918.91;;;31.36;nan
59053;BME280;44843;44.728;10.396;2023-07-20T09:54:04;99923.88;;;31.68;nan
59053;BME280;44843;44.728;10.396;2023-07-20T09:56:30;99922.25;;;31.67;nan
59053;BME280;44843;44.728;10.396;2023-07-20T09:58:56;99919.25;;;31.52;nan
59053;BME280;44843;44.728;10.396;2023-07-20T10:01:23;99911.88;;;31.47;nan
59053;BME280;44843;44.728;10.396;2023-07-20T10:03:51;99906.16;;;31.32;nan
59053;BME280;44843;44.728;10.396;2023-07-20T10:06:22;99911.09;;;31.23;nan
59053;BME280;44843;44.728;10.396;2023-07-20T10:08:49;99905.72;;;31.23;nan
59053;BME280;44843;44.728;10.396;2023-07-20T10:11:17;99908.44;;;31.64;nan
59053;BME280;44843;44.728;10.396;2023-07-20T10:13:44;99911.53;;;31.84;nan
59053;BME280;44843;44.728;10.396;2023-07-20T10:16:15;99907.84;;;31.90;nan
59053;BME280;44843;44.728;10.396;2023-07-20T10:19:07;99912.41;;;32.18;nan
59053;BME280;44843;44.728;10.396;2023-07-20T10:21:35;99907.47;;;32.44;nan
59053;BME280;44843;44.728;10.396;2023-07-20T10:24:03;99900.22;;;32.61;nan
59053;BME280;44843;44.728;10.396;2023-07-20T10:26:29;99904.16;;;32.54;nan
59053;BME280;44843;44.728;10.396;2023-07-20T10:28:55;99900.50;;;32.48;nan
59053;BME280;44843;44.728;10.396;2023-07-20T10:31:22;99910.88;;;31.94;nan
59053;BME280;44843;44.728;10.396;2023-07-20T10:33:48;99899.75;;;31.90;nan
59053;BME280;44843;44.728;10.396;2023-07-20T10:36:15;99897.50;;;31.99;nan
59053;BME280;44843;44.728;10.396;2023-07-20T10:41:22;99895.44;;;31.89;nan
59053;BME280;44843;44.728;10.396;2023-07-20T10:43:50;99893.56;;;31.90;nan
59053;BME280;44843;44.728;10.396;2023-07-20T10:46:41;99894.22;;;31.68;nan
59053;BME280;44843;44.728;10.396;2023-07-20T10:49:08;99889.75;;;31.33;nan
59053;BME280;44843;44.728;10.396;2023-07-20T10:51:47;99896.63;;;31.53;nan
59053;BME280;44843;44.728;10.396;2023-07-20T10:56:42;99883.00;;;31.71;nan
59053;BME280;44843;44.728;10.396;2023-07-20T10:59:37;99881.47;;;31.23;nan
59053;BME280;44843;44.728;10.396;2023-07-20T11:02:06;99890.66;;;31.51;nan
59053;BME280;44843;44.728;10.396;2023-07-20T11:04:42;99886.50;;;31.31;nan
59053;BME280;44843;44.728;10.396;2023-07-20T11:07:08;99888.66;;;31.58;nan
59053;BME280;44843;44.728;10.396;2023-07-20T11:09:35;99886.84;;;31.92;nan
59053;BME280;44843;44.728;10.396;2023-07-20T11:12:15;99881.53;;;32.09;nan
59053;BME280;44843;44.728;10.396;2023-07-20T11:14:42;99884.47;;;31.79;nan
59053;BME280;44843;44.728;10.396;2023-07-20T11:17:14;99874.66;;;32.18;nan
59053;BME280;44843;44.728;10.396;2023-07-20T11:19:41;99871.75;;;32.37;nan
59053;BME280;44843;44.728;10.396;2023-07-20T11:22:07;99863.06;;;32.18;nan
59053;BME280;44843;44.728;10.396;2023-07-20T11:24:33;99858.41;;;32.13;nan
59053;BME280;44843;44.728;10.396;2023-07-20T11:26:59;99855.50;;;31.86;nan
59053;BME280;44843;44.728;10.396;2023-07-20T11:29:26;99855.06;;;32.06;nan
59053;BME280;44843;44.728;10.396;2023-07-20T11:31:52;99847.78;;;32.07;nan
59053;BME280;44843;44.728;10.396;2023-07-20T11:34:18;99860.94;;;32.03;nan
59053;BME280;44843;44.728;10.396;2023-07-20T11:36:47;99852.28;;;32.18;nan
59053;BME280;44843;44.728;10.396;2023-07-20T11:39:14;99855.47;;;31.98;nan
59053;BME280;44843;44.728;10.396;2023-07-20T11:41:44;99850.88;;;31.98;nan
59053;BME280;44843;44.728;10.396;2023-07-20T11:44:11;99847.94;;;32.00;nan
59053;BME280;44843;44.728;10.396;2023-07-20T11:46:39;99846.81;;;31.67;nan
59053;BME280;44843;44.728;10.396;2023-07-20T11:49:05;99836.72;;;31.91;nan
59053;BME280;44843;44.728;10.396;2023-07-20T11:51:31;99835.63;;;31.75;nan
59053;BME280;44843;44.728;10.396;2023-07-20T11:53:57;99840.69;;;31.72;nan
59053;BME280;44843;44.728;10.396;2023-07-20T11:56:26;99837.75;;;31.73;nan
59053;BME280;44843;44.728;10.396;2023-07-20T11:58:55;99834.47;;;31.71;nan
59053;BME280;44843;44.728;10.396;2023-07-20T12:01:23;99829.38;;;31.87;nan
59053;BME280;44843;44.728;10.396;2023-07-20T12:03:48;99826.88;;;31.68;nan
59053;BME280;44843;44.728;10.396;2023-07-20T12:06:15;99823.16;;;31.86;nan
59053;BME280;44843;44.728;10.396;2023-07-20T12:08:44;99820.31;;;31.93;nan
59053;BME280;44843;44.728;10.396;2023-07-20T12:11:10;99816.81;;;32.09;nan
59053;BME280;44843;44.728;10.396;2023-07-20T12:13:42;99819.16;;;31.89;nan
59053;BME280;44843;44.728;10.396;2023-07-20T12:16:15;99811.53;;;32.14;nan
59053;BME280;44843;44.728;10.396;2023-07-20T12:18:42;99813.47;;;32.02;nan
59053;BME280;44843;44.728;10.396;2023-07-20T12:21:09;99813.53;;;32.07;nan
59053;BME280;44843;44.728;10.396;2023-07-20T12:23:36;99812.97;;;32.05;nan
59053;BME280;44843;44.728;10.396;2023-07-20T12:26:02;99800.31;;;32.22;nan
59053;BME280;44843;44.728;10.396;2023-07-20T12:28:28;99806.91;;;32.32;nan
59053;BME280;44843;44.728;10.396;2023-07-20T12:30:54;99805.13;;;32.37;nan
59053;BME280;44843;44.728;10.396;2023-07-20T12:33:22;99797.59;;;32.22;nan
59053;BME280;44843;44.728;10.396;2023-07-20T12:35:49;99796.56;;;32.23;nan
59053;BME280;44843;44.728;10.396;2023-07-20T12:38:15;99792.38;;;32.16;nan
59053;BME280;44843;44.728;10.396;2023-07-20T12:40:41;99794.44;;;32.26;nan
59053;BME280;44843;44.728;10.396;2023-07-20T12:43:07;99785.03;;;32.11;nan
59053;BME280;44843;44.728;10.396;2023-07-20T12:45:32;99781.88;;;32.14;nan
59053;BME280;44843;44.728;10.396;2023-07-20T12:47:58;99777.44;;;32.08;nan
59053;BME280;44843;44.728;10.396;2023-07-20T12:50:24;99779.00;;;32.04;nan
59053;BME280;44843;44.728;10.396;2023-07-20T12:52:50;99770.81;;;31.99;nan
59053;BME280;44843;44.728;10.396;2023-07-20T12:55:15;99773.91;;;31.91;nan
59053;BME280;44843;44.728;10.396;2023-07-20T12:57:41;99778.50;;;32.07;nan
59053;BME280;44843;44.728;10.396;2023-07-20T13:00:09;99782.34;;;32.11;nan
59053;BME280;44843;44.728;10.396;2023-07-20T13:02:35;99771.06;;;31.97;nan
59053;BME280;44843;44.728;10.396;2023-07-20T13:05:02;99771.44;;;32.23;nan
59053;BME280;44843;44.728;10.396;2023-07-20T13:07:35;99767.94;;;32.22;nan
59053;BME280;44843;44.728;10.396;2023-07-20T13:10:02;99768.63;;;32.30;nan
59053;BME280;44843;44.728;10.396;2023-07-20T13:12:30;99764.66;;;32.37;nan
59053;BME280;44843;44.728;10.396;2023-07-20T13:14:55;99759.84;;;32.22;nan